sensor_id;sensor_type;location;lat;lon;timestamp;pressure;altitude;pressure_sealevel;temperature;humidity
59103;BME280;43999;51.660;5.616;2024-03-22T00:02:29;101899.44;;;15.54;100.00
59103;BME280;43999;51.660;5.616;2024-03-22T00:05:16;101896.03;;;15.52;100.00
59103;BME280;43999;51.660;5.616;2024-03-22T00:08:04;101893.28;;;15.53;100.00
59103;BME280;43999;51.660;5.616;2024-03-22T00:10:51;101888.88;;;15.54;100.00
59103;BME280;43999;51.660;5.616;2024-03-22T00:13:39;101879.91;;;15.56;100.00
59103;BME280;43999;51.660;5.616;2024-03-22T00:16:26;101890.28;;;15.59;100.00
59103;BME280;43999;51.660;5.616;2024-03-22T00:19:13;101881.91;;;15.67;100.00
59103;BME280;43999;51.660;5.616;2024-03-22T00:22:00;101881.47;;;15.75;100.00
59103;BME280;43999;51.660;5.616;2024-03-22T00:24:47;101886.50;;;15.80;100.00
59103;BME280;43999;51.660;5.616;2024-03-22T00:27:35;101879.25;;;15.83;100.00
59103;BME280;43999;51.660;5.616;2024-03-22T00:30:22;101873.88;;;15.85;100.00
59103;BME280;43999;51.660;5.616;2024-03-22T00:33:08;101858.50;;;15.91;100.00
59103;BME280;43999;51.660;5.616;2024-03-22T00:35:55;101857.38;;;15.95;100.00
59103;BME280;43999;51.660;5.616;2024-03-22T00:38:41;101851.13;;;15.97;100.00
59103;BME280;43999;51.660;5.616;2024-03-22T00:41:29;101844.94;;;15.98;100.00
59103;BME280;43999;51.660;5.616;2024-03-22T00:44:15;101842.94;;;15.87;100.00
59103;BME280;43999;51.660;5.616;2024-03-22T00:47:04;101840.66;;;15.95;100.00
59103;BME280;43999;51.660;5.616;2024-03-22T00:49:51;101829.91;;;15.98;100.00
59103;BME280;43999;51.660;5.616;2024-03-22T00:52:39;101821.97;;;15.98;100.00
59103;BME280;43999;51.660;5.616;2024-03-22T00:55:26;101814.88;;;15.99;100.00
59103;BME280;43999;51.660;5.616;2024-03-22T00:58:13;101813.75;;;16.03;100.00
59103;BME280;43999;51.660;5.616;2024-03-22T01:01:00;101798.75;;;16.03;100.00
59103;BME280;43999;51.660;5.616;2024-03-22T01:03:47;101793.53;;;16.02;100.00
59103;BME280;43999;51.660;5.616;2024-03-22T01:06:33;101791.88;;;16.01;100.00
59103;BME280;43999;51.660;5.616;2024-03-22T01:09:20;101783.72;;;15.89;100.00
59103;BME280;43999;51.660;5.616;2024-03-22T01:12:06;101779.41;;;15.88;100.00
59103;BME280;43999;51.660;5.616;2024-03-22T01:14:55;101776.66;;;15.90;100.00
59103;BME280;43999;51.660;5.616;2024-03-22T01:17:41;101761.09;;;15.85;100.00
59103;BME280;43999;51.660;5.616;2024-03-22T01:20:31;101772.41;;;15.87;100.00
59103;BME280;43999;51.660;5.616;2024-03-22T01:23:18;101782.06;;;15.88;100.00
59103;BME280;43999;51.660;5.616;2024-03-22T01:26:04;101796.00;;;15.90;100.00
59103;BME280;43999;51.660;5.616;2024-03-22T01:28:51;101785.34;;;15.92;100.00
59103;BME280;43999;51.660;5.616;2024-03-22T01:31:38;101780.16;;;15.90;100.00
59103;BME280;43999;51.660;5.616;2024-03-22T01:34:25;101774.50;;;15.82;100.00
59103;BME280;43999;51.660;5.616;2024-03-22T01:37:11;101768.47;;;15.80;100.00
59103;BME280;43999;51.660;5.616;2024-03-22T01:39:58;101759.28;;;15.86;100.00
59103;BME280;43999;51.660;5.616;2024-03-22T01:42:46;101757.56;;;15.85;100.00
59103;BME280;43999;51.660;5.616;2024-03-22T01:45:33;101749.97;;;15.80;100.00
59103;BME280;43999;51.660;5.616;2024-03-22T01:48:20;101743.97;;;15.76;100.00
59103;BME280;43999;51.660;5.616;2024-03-22T01:51:06;101747.41;;;15.79;100.00
59103;BME280;43999;51.660;5.616;2024-03-22T01:53:55;101749.25;;;15.76;100.00
59103;BME280;43999;51.660;5.616;2024-03-22T01:56:42;101746.59;;;15.76;100.00
59103;BME280;43999;51.660;5.616;2024-03-22T01:59:30;101763.38;;;15.77;100.00
59103;BME280;43999;51.660;5.616;2024-03-22T02:02:20;101763.19;;;15.80;100.00
59103;BME280;43999;51.660;5.616;2024-03-22T02:05:13;101758.09;;;15.77;100.00
59103;BME280;43999;51.660;5.616;2024-03-22T02:08:01;101763.28;;;15.79;100.00
59103;BME280;43999;51.660;5.616;2024-03-22T02:10:48;101755.34;;;15.79;100.00
59103;BME280;43999;51.660;5.616;2024-03-22T02:13:34;101746.59;;;15.76;100.00
59103;BME280;43999;51.660;5.616;2024-03-22T02:16:21;101743.97;;;15.76;100.00
59103;BME280;43999;51.660;5.616;2024-03-22T02:19:08;101742.38;;;15.74;100.00
59103;BME280;43999;51.660;5.616;2024-03-22T02:21:56;101747.84;;;15.71;100.00
59103;BME280;43999;51.660;5.616;2024-03-22T02:24:42;101732.09;;;15.69;100.00
59103;BME280;43999;51.660;5.616;2024-03-22T02:27:29;101744.94;;;15.75;100.00
59103;BME280;43999;51.660;5.616;2024-03-22T02:30:17;101730.09;;;15.73;100.00
59103;BME280;43999;51.660;5.616;2024-03-22T02:33:03;101725.22;;;15.81;100.00
59103;BME280;43999;51.660;5.616;2024-03-22T02:35:50;101726.75;;;15.85;100.00
59103;BME280;43999;51.660;5.616;2024-03-22T02:38:38;101730.78;;;15.91;100.00
59103;BME280;43999;51.660;5.616;2024-03-22T02:41:24;101714.81;;;15.92;100.00
59103;BME280;43999;51.660;5.616;2024-03-22T02:44:11;101710.59;;;15.90;100.00
59103;BME280;43999;51.660;5.616;2024-03-22T02:46:57;101701.44;;;15.81;100.00
59103;BME280;43999;51.660;5.616;2024-03-22T02:49:45;101700.50;;;15.82;100.00
59103;BME280;43999;51.660;5.616;2024-03-22T02:52:31;101701.88;;;15.88;100.00
59103;BME280;43999;51.660;5.616;2024-03-22T02:55:18;101694.94;;;15.87;100.00
59103;BME280;43999;51.660;5.616;2024-03-22T02:58:06;101688.97;;;15.83;100.00
59103;BME280;43999;51.660;5.616;2024-03-22T03:00:54;101685.94;;;15.75;100.00
59103;BME280;43999;51.660;5.616;2024-03-22T03:03:40;101681.72;;;15.72;100.00
59103;BME280;43999;51.660;5.616;2024-03-22T03:06:27;101664.34;;;15.54;100.00
59103;BME280;43999;51.660;5.616;2024-03-22T03:09:14;101673.84;;;15.56;100.00
59103;BME280;43999;51.660;5.616;2024-03-22T03:12:01;101668.66;;;15.55;100.00
59103;BME280;43999;51.660;5.616;2024-03-22T03:14:49;101663.66;;;15.50;100.00
59103;BME280;43999;51.660;5.616;2024-03-22T03:17:35;101655.75;;;15.50;100.00
59103;BME280;43999;51.660;5.616;2024-03-22T03:20:22;101657.84;;;15.45;100.00
59103;BME280;43999;51.660;5.616;2024-03-22T03:23:09;101650.94;;;15.42;100.00
59103;BME280;43999;51.660;5.616;2024-03-22T03:25:57;101637.81;;;15.41;100.00
59103;BME280;43999;51.660;5.616;2024-03-22T03:28:44;101631.81;;;15.39;100.00
59103;BME280;43999;51.660;5.616;2024-03-22T03:31:31;101632.81;;;15.36;100.00
59103;BME280;43999;51.660;5.616;2024-03-22T03:34:18;101634.72;;;15.34;100.00
59103;BME280;43999;51.660;5.616;2024-03-22T03:37:07;101620.88;;;15.31;100.00
59103;BME280;43999;51.660;5.616;2024-03-22T03:39:54;101618.69;;;15.23;100.00
59103;BME280;43999;51.660;5.616;2024-03-22T03:42:41;101627.38;;;15.25;100.00
59103;BME280;43999;51.660;5.616;2024-03-22T03:45:29;101630.09;;;15.23;100.00
59103;BME280;43999;51.660;5.616;2024-03-22T03:48:16;101618.59;;;15.24;100.00
59103;BME280;43999;51.660;5.616;2024-03-22T03:51:02;101619.44;;;15.25;100.00
59103;BME280;43999;51.660;5.616;2024-03-22T03:53:49;101618.50;;;15.26;100.00
59103;BME280;43999;51.660;5.616;2024-03-22T03:56:36;101609.06;;;15.22;100.00
59103;BME280;43999;51.660;5.616;2024-03-22T03:59:23;101607.28;;;15.22;100.00
59103;BME280;43999;51.660;5.616;2024-03-22T04:02:09;101609.72;;;15.11;100.00
59103;BME280;43999;51.660;5.616;2024-03-22T04:04:56;101597.00;;;15.03;100.00
59103;BME280;43999;51.660;5.616;2024-03-22T04:07:47;101599.53;;;15.05;100.00
59103;BME280;43999;51.660;5.616;2024-03-22T04:10:35;101594.63;;;15.13;100.00
59103;BME280;43999;51.660;5.616;2024-03-22T04:13:24;101589.72;;;15.07;100.00
59103;BME280;43999;51.660;5.616;2024-03-22T04:16:11;101596.34;;;15.14;100.00
59103;BME280;43999;51.660;5.616;2024-03-22T04:18:58;101595.50;;;15.14;100.00
59103;BME280;43999;51.660;5.616;2024-03-22T04:21:45;101583.03;;;15.16;100.00
59103;BME280;43999;51.660;5.616;2024-03-22T04:24:34;101578.50;;;15.18;100.00
59103;BME280;43999;51.660;5.616;2024-03-22T04:27:22;101581.94;;;15.20;100.00
59103;BME280;43999;51.660;5.616;2024-03-22T04:30:11;101595.19;;;15.04;100.00
59103;BME280;43999;51.660;5.616;2024-03-22T04:32:58;101601.72;;;15.13;100.00
59103;BME280;43999;51.660;5.616;2024-03-22T04:35:45;101601.72;;;15.13;100.00
59103;BME280;43999;51.660;5.616;2024-03-22T04:38:33;101592.69;;;15.17;100.00
59103;BME280;43999;51.660;5.616;2024-03-22T04:41:20;101600.41;;;15.20;100.00
59103;BME280;43999;51.660;5.616;2024-03-22T04:44:08;101590.03;;;15.17;100.00
59103;BME280;43999;51.660;5.616;2024-03-22T04:46:57;101593.59;;;15.01;100.00
59103;BME280;43999;51.660;5.616;2024-03-22T04:49:44;101586.72;;;14.99;100.00
59103;BME280;43999;51.660;5.616;2024-03-22T04:52:34;101587.28;;;15.04;100.00
59103;BME280;43999;51.660;5.616;2024-03-22T04:55:21;101586.25;;;15.06;100.00
59103;BME280;43999;51.660;5.616;2024-03-22T04:58:07;101579.25;;;15.05;100.00
59103;BME280;43999;51.660;5.616;2024-03-22T05:00:57;101576.72;;;15.04;100.00
59103;BME280;43999;51.660;5.616;2024-03-22T05:03:44;101573.44;;;15.00;100.00
59103;BME280;43999;51.660;5.616;2024-03-22T05:06:31;101573.44;;;15.00;100.00
59103;BME280;43999;51.660;5.616;2024-03-22T05:09:18;101565.13;;;15.06;100.00
59103;BME280;43999;51.660;5.616;2024-03-22T05:12:04;101570.41;;;14.92;100.00
59103;BME280;43999;51.660;5.616;2024-03-22T05:14:52;101567.09;;;14.88;100.00
59103;BME280;43999;51.660;5.616;2024-03-22T05:17:39;101570.59;;;14.89;100.00
59103;BME280;43999;51.660;5.616;2024-03-22T05:20:27;101565.59;;;14.84;100.00
59103;BME280;43999;51.660;5.616;2024-03-22T05:23:14;101559.72;;;14.79;100.00
59103;BME280;43999;51.660;5.616;2024-03-22T05:26:02;101562.88;;;14.86;100.00
59103;BME280;43999;51.660;5.616;2024-03-22T05:28:50;101564.06;;;14.80;100.00
59103;BME280;43999;51.660;5.616;2024-03-22T05:31:47;101561.81;;;14.74;100.00
59103;BME280;43999;51.660;5.616;2024-03-22T05:34:35;101556.91;;;14.82;100.00
59103;BME280;43999;51.660;5.616;2024-03-22T05:37:22;101556.53;;;14.74;100.00
59103;BME280;43999;51.660;5.616;2024-03-22T05:40:09;101556.06;;;14.82;100.00
59103;BME280;43999;51.660;5.616;2024-03-22T05:42:57;101545.69;;;14.79;100.00
59103;BME280;43999;51.660;5.616;2024-03-22T05:45:44;101551.81;;;14.79;100.00
59103;BME280;43999;51.660;5.616;2024-03-22T05:48:30;101548.63;;;14.74;100.00
59103;BME280;43999;51.660;5.616;2024-03-22T05:51:17;101550.22;;;14.77;100.00
59103;BME280;43999;51.660;5.616;2024-03-22T05:54:05;101554.81;;;14.73;100.00
59103;BME280;43999;51.660;5.616;2024-03-22T05:56:55;101553.88;;;14.74;100.00
59103;BME280;43999;51.660;5.616;2024-03-22T05:59:43;101558.97;;;14.77;100.00
59103;BME280;43999;51.660;5.616;2024-03-22T06:02:29;101558.72;;;14.82;100.00
59103;BME280;43999;51.660;5.616;2024-03-22T06:05:19;101556.91;;;14.82;100.00
59103;BME280;43999;51.660;5.616;2024-03-22T06:08:05;101557.41;;;14.89;100.00
59103;BME280;43999;51.660;5.616;2024-03-22T06:10:54;101553.81;;;14.90;100.00
59103;BME280;43999;51.660;5.616;2024-03-22T06:13:42;101559.91;;;14.76;100.00
59103;BME280;43999;51.660;5.616;2024-03-22T06:16:28;101565.59;;;14.84;100.00
59103;BME280;43999;51.660;5.616;2024-03-22T06:19:15;101550.97;;;14.93;100.00
59103;BME280;43999;51.660;5.616;2024-03-22T06:22:03;101550.78;;;14.96;100.00
59103;BME280;43999;51.660;5.616;2024-03-22T06:24:50;101545.88;;;14.90;100.00
59103;BME280;43999;51.660;5.616;2024-03-22T06:27:38;101556.66;;;15.01;100.00
59103;BME280;43999;51.660;5.616;2024-03-22T06:30:44;101547.03;;;15.00;100.00
59103;BME280;43999;51.660;5.616;2024-03-22T06:33:41;101547.50;;;15.07;100.00
59103;BME280;43999;51.660;5.616;2024-03-22T06:36:30;101552.88;;;15.05;100.00
59103;BME280;43999;51.660;5.616;2024-03-22T06:39:19;101551.56;;;14.98;99.66
59103;BME280;43999;51.660;5.616;2024-03-22T06:42:06;101549.69;;;15.00;99.32
59103;BME280;43999;51.660;5.616;2024-03-22T06:44:55;101547.69;;;15.04;98.84
59103;BME280;43999;51.660;5.616;2024-03-22T06:47:43;101541.56;;;15.03;98.49
59103;BME280;43999;51.660;5.616;2024-03-22T06:50:29;101539.84;;;15.02;98.39
59103;BME280;43999;51.660;5.616;2024-03-22T06:53:17;101540.72;;;15.03;99.05
59103;BME280;43999;51.660;5.616;2024-03-22T06:56:04;101534.03;;;14.83;98.35
59103;BME280;43999;51.660;5.616;2024-03-22T06:58:51;101534.50;;;14.90;97.81
59103;BME280;43999;51.660;5.616;2024-03-22T07:01:39;101530.97;;;14.75;97.69
59103;BME280;43999;51.660;5.616;2024-03-22T07:04:26;101533.16;;;14.82;97.97
59103;BME280;43999;51.660;5.616;2024-03-22T07:07:13;101543.25;;;14.90;97.97
59103;BME280;43999;51.660;5.616;2024-03-22T07:09:59;101534.13;;;14.96;97.56
59103;BME280;43999;51.660;5.616;2024-03-22T07:12:46;101543.06;;;14.93;96.98
59103;BME280;43999;51.660;5.616;2024-03-22T07:15:33;101544.09;;;15.05;97.46
59103;BME280;43999;51.660;5.616;2024-03-22T07:18:20;101533.63;;;15.18;96.80
59103;BME280;43999;51.660;5.616;2024-03-22T07:21:07;101537.59;;;15.25;96.33
59103;BME280;43999;51.660;5.616;2024-03-22T07:23:53;101534.09;;;15.39;96.31
59103;BME280;43999;51.660;5.616;2024-03-22T07:26:40;101531.72;;;15.49;95.46
59103;BME280;43999;51.660;5.616;2024-03-22T07:29:28;101536.00;;;15.64;95.58
59103;BME280;43999;51.660;5.616;2024-03-22T07:32:15;101537.75;;;15.51;94.77
59103;BME280;43999;51.660;5.616;2024-03-22T07:35:02;101532.28;;;15.54;94.63
59103;BME280;43999;51.660;5.616;2024-03-22T07:37:49;101538.00;;;15.60;94.42
59103;BME280;43999;51.660;5.616;2024-03-22T07:40:37;101529.94;;;15.76;94.40
59103;BME280;43999;51.660;5.616;2024-03-22T07:43:24;101518.78;;;15.58;93.31
59103;BME280;43999;51.660;5.616;2024-03-22T07:46:11;101531.88;;;15.60;93.68
59103;BME280;43999;51.660;5.616;2024-03-22T07:48:59;101524.59;;;15.78;93.64
59103;BME280;43999;51.660;5.616;2024-03-22T07:51:46;101539.75;;;15.89;93.11
59103;BME280;43999;51.660;5.616;2024-03-22T07:54:33;101536.91;;;15.92;92.29
59103;BME280;43999;51.660;5.616;2024-03-22T07:57:20;101539.13;;;15.98;92.11
59103;BME280;43999;51.660;5.616;2024-03-22T08:00:09;101531.63;;;16.05;92.28
59103;BME280;43999;51.660;5.616;2024-03-22T08:03:00;101530.91;;;16.03;91.22
59103;BME280;43999;51.660;5.616;2024-03-22T08:05:47;101522.13;;;16.02;91.47
59103;BME280;43999;51.660;5.616;2024-03-22T08:08:35;101533.75;;;16.00;91.39
59103;BME280;43999;51.660;5.616;2024-03-22T08:11:23;101527.06;;;15.94;90.98
59103;BME280;43999;51.660;5.616;2024-03-22T08:14:10;101530.22;;;15.86;91.22
59103;BME280;43999;51.660;5.616;2024-03-22T08:17:03;101523.03;;;15.88;91.22
59103;BME280;43999;51.660;5.616;2024-03-22T08:19:53;101532.03;;;15.99;90.88
59103;BME280;43999;51.660;5.616;2024-03-22T08:22:40;101532.53;;;15.91;91.28
59103;BME280;43999;51.660;5.616;2024-03-22T08:25:28;101535.38;;;15.88;91.71
59103;BME280;43999;51.660;5.616;2024-03-22T08:28:15;101532.97;;;15.70;91.65
59103;BME280;43999;51.660;5.616;2024-03-22T08:31:06;101530.84;;;15.77;91.78
59103;BME280;43999;51.660;5.616;2024-03-22T08:33:54;101534.84;;;15.83;91.78
59103;BME280;43999;51.660;5.616;2024-03-22T08:36:44;101529.88;;;15.78;91.55
59103;BME280;43999;51.660;5.616;2024-03-22T08:39:32;101536.66;;;15.82;92.47
59103;BME280;43999;51.660;5.616;2024-03-22T08:42:20;101530.03;;;15.75;92.24
59103;BME280;43999;51.660;5.616;2024-03-22T08:45:07;101515.22;;;15.87;91.58
59103;BME280;43999;51.660;5.616;2024-03-22T08:48:01;101503.94;;;15.98;91.68
59103;BME280;43999;51.660;5.616;2024-03-22T08:50:48;101518.72;;;16.00;90.22
59103;BME280;43999;51.660;5.616;2024-03-22T08:53:36;101508.56;;;15.94;90.24
59103;BME280;43999;51.660;5.616;2024-03-22T08:56:22;101516.59;;;15.92;90.64
59103;BME280;43999;51.660;5.616;2024-03-22T08:59:09;101511.00;;;15.97;90.24
59103;BME280;43999;51.660;5.616;2024-03-22T09:01:57;101505.66;;;16.11;90.03
59103;BME280;43999;51.660;5.616;2024-03-22T09:04:46;101514.44;;;16.25;89.49
59103;BME280;43999;51.660;5.616;2024-03-22T09:07:34;101508.31;;;16.24;89.36
59103;BME280;43999;51.660;5.616;2024-03-22T09:10:26;101515.63;;;16.21;88.67
59103;BME280;43999;51.660;5.616;2024-03-22T09:13:13;101513.63;;;16.24;88.86
59103;BME280;43999;51.660;5.616;2024-03-22T09:16:01;101512.47;;;16.28;88.26
59103;BME280;43999;51.660;5.616;2024-03-22T09:18:48;101519.22;;;16.20;88.09
59103;BME280;43999;51.660;5.616;2024-03-22T09:21:36;101506.72;;;16.09;88.33
59103;BME280;43999;51.660;5.616;2024-03-22T09:24:23;101500.03;;;16.03;88.21
59103;BME280;43999;51.660;5.616;2024-03-22T09:27:11;101508.22;;;16.13;88.42
59103;BME280;43999;51.660;5.616;2024-03-22T09:30:06;101506.41;;;16.13;87.63
59103;BME280;43999;51.660;5.616;2024-03-22T09:33:00;101501.31;;;16.10;87.92
59103;BME280;43999;51.660;5.616;2024-03-22T09:36:03;101508.00;;;16.16;88.32
59103;BME280;43999;51.660;5.616;2024-03-22T09:38:54;101501.72;;;16.04;87.54
59103;BME280;43999;51.660;5.616;2024-03-22T09:41:44;101495.31;;;15.81;86.04
59103;BME280;43999;51.660;5.616;2024-03-22T09:44:32;101493.34;;;15.70;87.20
59103;BME280;43999;51.660;5.616;2024-03-22T09:47:22;101481.16;;;15.82;86.98
59103;BME280;43999;51.660;5.616;2024-03-22T09:50:16;101480.84;;;15.87;87.65
59103;BME280;43999;51.660;5.616;2024-03-22T09:53:17;101486.03;;;15.88;86.07
59103;BME280;43999;51.660;5.616;2024-03-22T09:56:05;101479.41;;;15.68;86.84
59103;BME280;43999;51.660;5.616;2024-03-22T09:59:16;101477.78;;;15.66;87.19
59103;BME280;43999;51.660;5.616;2024-03-22T10:02:32;101472.38;;;15.82;86.21
59103;BME280;43999;51.660;5.616;2024-03-22T10:05:42;101476.94;;;15.92;86.50
59103;BME280;43999;51.660;5.616;2024-03-22T10:08:33;101482.38;;;16.04;86.62
59103;BME280;43999;51.660;5.616;2024-03-22T10:11:22;101467.38;;;16.17;86.05
59103;BME280;43999;51.660;5.616;2024-03-22T10:14:15;101459.44;;;16.17;85.88
59103;BME280;43999;51.660;5.616;2024-03-22T10:17:02;101472.47;;;16.20;85.82
59103;BME280;43999;51.660;5.616;2024-03-22T10:19:50;101457.97;;;16.13;85.40
59103;BME280;43999;51.660;5.616;2024-03-22T10:22:41;101465.25;;;16.09;85.36
59103;BME280;43999;51.660;5.616;2024-03-22T10:25:34;101473.53;;;16.18;85.52
59103;BME280;43999;51.660;5.616;2024-03-22T10:28:25;101463.16;;;16.15;86.09
59103;BME280;43999;51.660;5.616;2024-03-22T10:31:16;101459.84;;;16.11;85.21
59103;BME280;43999;51.660;5.616;2024-03-22T10:34:05;101470.13;;;16.16;85.03
59103;BME280;43999;51.660;5.616;2024-03-22T10:37:00;101467.59;;;16.14;84.74
59103;BME280;43999;51.660;5.616;2024-03-22T10:39:51;101468.31;;;16.03;85.55
59103;BME280;43999;51.660;5.616;2024-03-22T10:42:51;101478.03;;;16.03;85.87
59103;BME280;43999;51.660;5.616;2024-03-22T10:45:41;101470.81;;;15.92;86.12
59103;BME280;43999;51.660;5.616;2024-03-22T10:48:30;101473.16;;;15.97;86.63
59103;BME280;43999;51.660;5.616;2024-03-22T10:51:19;101468.31;;;16.03;86.62
59103;BME280;43999;51.660;5.616;2024-03-22T10:54:21;101459.75;;;16.00;86.93
59103;BME280;43999;51.660;5.616;2024-03-22T10:57:15;101471.03;;;16.02;86.06
59103;BME280;43999;51.660;5.616;2024-03-22T11:00:14;101473.47;;;15.92;86.92
59103;BME280;43999;51.660;5.616;2024-03-22T11:03:08;101469.16;;;15.76;87.71
59103;BME280;43999;51.660;5.616;2024-03-22T11:05:57;101463.84;;;15.64;88.60
59103;BME280;43999;51.660;5.616;2024-03-22T11:08:52;101455.50;;;15.70;88.96
59103;BME280;43999;51.660;5.616;2024-03-22T11:11:45;101461.63;;;15.70;90.08
59103;BME280;43999;51.660;5.616;2024-03-22T11:14:38;101462.97;;;15.77;90.43
59103;BME280;43999;51.660;5.616;2024-03-22T11:17:27;101463.13;;;15.74;91.40
59103;BME280;43999;51.660;5.616;2024-03-22T11:20:19;101453.50;;;15.73;92.96
59103;BME280;43999;51.660;5.616;2024-03-22T11:23:09;101466.97;;;15.56;94.64
59103;BME280;43999;51.660;5.616;2024-03-22T11:26:09;101458.03;;;15.58;95.46
59103;BME280;43999;51.660;5.616;2024-03-22T11:28:56;101459.16;;;15.54;96.54
59103;BME280;43999;51.660;5.616;2024-03-22T11:31:50;101467.28;;;15.51;97.48
59103;BME280;43999;51.660;5.616;2024-03-22T11:34:46;101466.75;;;15.46;99.49
59103;BME280;43999;51.660;5.616;2024-03-22T11:37:42;101465.72;;;15.34;100.00
59103;BME280;43999;51.660;5.616;2024-03-22T11:40:34;101465.28;;;15.28;100.00
59103;BME280;43999;51.660;5.616;2024-03-22T11:43:21;101457.56;;;15.24;100.00
59103;BME280;43999;51.660;5.616;2024-03-22T11:46:08;101450.31;;;15.14;100.00
59103;BME280;43999;51.660;5.616;2024-03-22T11:49:00;101459.94;;;15.00;100.00
59103;BME280;43999;51.660;5.616;2024-03-22T11:51:56;101453.63;;;15.03;100.00
59103;BME280;43999;51.660;5.616;2024-03-22T11:54:59;101452.59;;;14.91;100.00
59103;BME280;43999;51.660;5.616;2024-03-22T11:57:53;101444.97;;;14.86;100.00
59103;BME280;43999;51.660;5.616;2024-03-22T12:00:50;101439.50;;;14.90;100.00
59103;BME280;43999;51.660;5.616;2024-03-22T12:06:49;101434.69;;;14.82;100.00
59103;BME280;43999;51.660;5.616;2024-03-22T12:09:41;101427.91;;;14.78;100.00
59103;BME280;43999;51.660;5.616;2024-03-22T12:12:39;101418.50;;;14.74;100.00
59103;BME280;43999;51.660;5.616;2024-03-22T12:15:26;101412.66;;;14.68;100.00
59103;BME280;43999;51.660;5.616;2024-03-22T12:18:14;101407.28;;;14.70;100.00
59103;BME280;43999;51.660;5.616;2024-03-22T12:21:04;101400.88;;;14.74;100.00
59103;BME280;43999;51.660;5.616;2024-03-22T12:23:58;101405.97;;;14.77;100.00
59103;BME280;43999;51.660;5.616;2024-03-22T12:26:44;101398.88;;;14.78;100.00
59103;BME280;43999;51.660;5.616;2024-03-22T12:29:33;101389.31;;;14.77;100.00
59103;BME280;43999;51.660;5.616;2024-03-22T12:32:19;101388.63;;;14.73;100.00
59103;BME280;43999;51.660;5.616;2024-03-22T12:35:07;101377.25;;;14.73;100.00
59103;BME280;43999;51.660;5.616;2024-03-22T12:37:55;101372.81;;;14.73;100.00
59103;BME280;43999;51.660;5.616;2024-03-22T12:40:49;101376.41;;;14.72;100.00
59103;BME280;43999;51.660;5.616;2024-03-22T12:43:37;101366.88;;;14.69;100.00
59103;BME280;43999;51.660;5.616;2024-03-22T12:46:26;101368.28;;;14.61;100.00
59103;BME280;43999;51.660;5.616;2024-03-22T12:49:17;101369.34;;;14.44;100.00
59103;BME280;43999;51.660;5.616;2024-03-22T12:52:06;101361.16;;;14.48;100.00
59103;BME280;43999;51.660;5.616;2024-03-22T12:54:55;101359.34;;;14.63;100.00
59103;BME280;43999;51.660;5.616;2024-03-22T12:57:47;101354.81;;;14.65;100.00
59103;BME280;43999;51.660;5.616;2024-03-22T13:00:35;101359.63;;;14.73;100.00
59103;BME280;43999;51.660;5.616;2024-03-22T13:03:28;101353.59;;;14.71;100.00
59103;BME280;43999;51.660;5.616;2024-03-22T13:06:16;101352.56;;;14.74;100.00
59103;BME280;43999;51.660;5.616;2024-03-22T13:09:05;101353.25;;;14.63;100.00
59103;BME280;43999;51.660;5.616;2024-03-22T13:11:53;101356.97;;;14.59;100.00
59103;BME280;43999;51.660;5.616;2024-03-22T13:14:42;101347.25;;;14.59;100.00
59103;BME280;43999;51.660;5.616;2024-03-22T13:17:30;101343.34;;;14.52;100.00
59103;BME280;43999;51.660;5.616;2024-03-22T13:20:27;101343.97;;;14.56;100.00
59103;BME280;43999;51.660;5.616;2024-03-22T13:23:26;101344.00;;;14.41;100.00
59103;BME280;43999;51.660;5.616;2024-03-22T13:26:12;101337.13;;;14.39;100.00
59103;BME280;43999;51.660;5.616;2024-03-22T13:29:01;101340.06;;;14.48;100.00
59103;BME280;43999;51.660;5.616;2024-03-22T13:31:49;101334.47;;;14.53;100.00
59103;BME280;43999;51.660;5.616;2024-03-22T13:34:38;101329.50;;;14.48;100.00
59103;BME280;43999;51.660;5.616;2024-03-22T13:37:25;101327.50;;;14.52;100.00
59103;BME280;43999;51.660;5.616;2024-03-22T13:40:19;101318.97;;;14.48;100.00
59103;BME280;43999;51.660;5.616;2024-03-22T13:43:07;101317.59;;;14.56;100.00
59103;BME280;43999;51.660;5.616;2024-03-22T13:45:55;101316.47;;;14.60;100.00
59103;BME280;43999;51.660;5.616;2024-03-22T13:48:43;101310.72;;;14.53;100.00
59103;BME280;43999;51.660;5.616;2024-03-22T13:51:38;101305.53;;;14.51;100.00
59103;BME280;43999;51.660;5.616;2024-03-22T13:54:26;101296.25;;;14.60;100.00
59103;BME280;43999;51.660;5.616;2024-03-22T13:57:13;101295.63;;;14.42;100.00
59103;BME280;43999;51.660;5.616;2024-03-22T14:00:06;101297.19;;;14.45;100.00
59103;BME280;43999;51.660;5.616;2024-03-22T14:03:02;101297.72;;;14.50;100.00
59103;BME280;43999;51.660;5.616;2024-03-22T14:06:21;101306.31;;;14.53;100.00
59103;BME280;43999;51.660;5.616;2024-03-22T14:09:34;101298.69;;;14.49;100.00
59103;BME280;43999;51.660;5.616;2024-03-22T14:12:41;101303.63;;;14.41;100.00
59103;BME280;43999;51.660;5.616;2024-03-22T14:15:39;101288.09;;;14.36;100.00
59103;BME280;43999;51.660;5.616;2024-03-22T14:18:27;101285.44;;;14.36;100.00
59103;BME280;43999;51.660;5.616;2024-03-22T14:21:16;101274.13;;;14.34;100.00
59103;BME280;43999;51.660;5.616;2024-03-22T14:24:09;101274.22;;;14.32;100.00
59103;BME280;43999;51.660;5.616;2024-03-22T14:27:08;101276.31;;;14.27;100.00
59103;BME280;43999;51.660;5.616;2024-03-22T14:30:04;101265.13;;;14.24;100.00
59103;BME280;43999;51.660;5.616;2024-03-22T14:32:57;101265.03;;;14.25;100.00
59103;BME280;43999;51.660;5.616;2024-03-22T14:36:07;101269.06;;;14.31;100.00
59103;BME280;43999;51.660;5.616;2024-03-22T14:39:08;101264.66;;;14.31;100.00
59103;BME280;43999;51.660;5.616;2024-03-22T14:41:58;101251.19;;;14.22;100.00